Terminal Aerodrome Forecast
Issued by NWS

Home | Current Version | Previous Version | Graphics & Text | Print | Product List | Glossary On
Versions: 1 2 3 4 5 6 7 8 9 10 11 12 13 14 15
000
FTUS43 KFGF 240500
TAFBJI
TAF
KBJI 240520Z 2406/2506 VRB05KT P6SM BKN250
     FM240900 10009KT P6SM OVC080
     FM241300 11012KT P6SM OVC060
     FM241700 12014G20KT P6SM VCSH OVC030
     FM250000 10013KT P6SM OVC010=

USA.gov is the U.S. government's official web portal to all federal, state and local government web resources and services.